sensor_id;sensor_type;location;lat;lon;timestamp;temperature;humidity
44863;DHT22;30597;49.628;10.850;2024-02-16T00:01:04;22.70;56.00
44863;DHT22;30597;49.628;10.850;2024-02-16T00:03:30;22.60;55.90
44863;DHT22;30597;49.628;10.850;2024-02-16T00:05:56;22.60;56.10
44863;DHT22;30597;49.628;10.850;2024-02-16T00:08:21;22.60;56.00
44863;DHT22;30597;49.628;10.850;2024-02-16T00:10:47;22.60;56.00
44863;DHT22;30597;49.628;10.850;2024-02-16T00:13:14;22.60;56.20
44863;DHT22;30597;49.628;10.850;2024-02-16T00:15:39;22.60;56.20
44863;DHT22;30597;49.628;10.850;2024-02-16T00:18:06;22.50;56.10
44863;DHT22;30597;49.628;10.850;2024-02-16T00:20:31;22.50;56.10
44863;DHT22;30597;49.628;10.850;2024-02-16T00:22:57;22.50;56.20
44863;DHT22;30597;49.628;10.850;2024-02-16T00:25:23;22.60;56.40
44863;DHT22;30597;49.628;10.850;2024-02-16T00:27:49;22.50;56.20
44863;DHT22;30597;49.628;10.850;2024-02-16T00:30:18;22.50;56.30
44863;DHT22;30597;49.628;10.850;2024-02-16T00:32:44;22.60;56.50
44863;DHT22;30597;49.628;10.850;2024-02-16T00:35:20;22.40;56.20
44863;DHT22;30597;49.628;10.850;2024-02-16T00:37:45;22.40;56.40
44863;DHT22;30597;49.628;10.850;2024-02-16T00:40:12;22.40;56.40
44863;DHT22;30597;49.628;10.850;2024-02-16T00:42:38;22.40;56.50
44863;DHT22;30597;49.628;10.850;2024-02-16T00:45:04;22.40;56.50
44863;DHT22;30597;49.628;10.850;2024-02-16T00:47:29;22.40;56.50
44863;DHT22;30597;49.628;10.850;2024-02-16T00:49:55;22.40;56.50
44863;DHT22;30597;49.628;10.850;2024-02-16T00:52:22;22.40;56.50
44863;DHT22;30597;49.628;10.850;2024-02-16T00:54:48;22.40;56.50
44863;DHT22;30597;49.628;10.850;2024-02-16T00:57:14;22.40;56.60
44863;DHT22;30597;49.628;10.850;2024-02-16T00:59:40;22.40;56.60
44863;DHT22;30597;49.628;10.850;2024-02-16T01:02:06;22.50;56.70
44863;DHT22;30597;49.628;10.850;2024-02-16T01:04:32;22.30;56.60
44863;DHT22;30597;49.628;10.850;2024-02-16T01:06:58;22.30;57.20
44863;DHT22;30597;49.628;10.850;2024-02-16T01:09:24;22.30;56.70
44863;DHT22;30597;49.628;10.850;2024-02-16T01:11:49;22.30;56.70
44863;DHT22;30597;49.628;10.850;2024-02-16T01:14:15;22.30;56.80
44863;DHT22;30597;49.628;10.850;2024-02-16T01:16:40;22.30;56.80
44863;DHT22;30597;49.628;10.850;2024-02-16T01:19:06;22.30;56.80
44863;DHT22;30597;49.628;10.850;2024-02-16T01:21:32;22.30;56.80
44863;DHT22;30597;49.628;10.850;2024-02-16T01:23:58;22.30;56.80
44863;DHT22;30597;49.628;10.850;2024-02-16T01:26:26;22.30;56.80
44863;DHT22;30597;49.628;10.850;2024-02-16T01:28:52;22.30;57.00
44863;DHT22;30597;49.628;10.850;2024-02-16T01:31:17;22.30;56.90
44863;DHT22;30597;49.628;10.850;2024-02-16T01:33:43;22.20;56.80
44863;DHT22;30597;49.628;10.850;2024-02-16T01:36:08;22.20;56.80
44863;DHT22;30597;49.628;10.850;2024-02-16T01:38:34;22.20;56.80
44863;DHT22;30597;49.628;10.850;2024-02-16T01:41:00;22.20;56.90
44863;DHT22;30597;49.628;10.850;2024-02-16T01:43:27;22.20;56.90
44863;DHT22;30597;49.628;10.850;2024-02-16T01:45:53;22.20;56.90
44863;DHT22;30597;49.628;10.850;2024-02-16T01:48:19;22.20;57.00
44863;DHT22;30597;49.628;10.850;2024-02-16T01:50:46;22.20;56.90
44863;DHT22;30597;49.628;10.850;2024-02-16T01:53:14;22.20;57.10
44863;DHT22;30597;49.628;10.850;2024-02-16T01:55:41;22.10;57.10
44863;DHT22;30597;49.628;10.850;2024-02-16T01:58:06;22.10;57.00
44863;DHT22;30597;49.628;10.850;2024-02-16T02:00:32;22.10;57.00
44863;DHT22;30597;49.628;10.850;2024-02-16T02:02:58;22.10;57.00
44863;DHT22;30597;49.628;10.850;2024-02-16T02:05:23;22.10;57.00
44863;DHT22;30597;49.628;10.850;2024-02-16T02:07:49;22.10;57.10
44863;DHT22;30597;49.628;10.850;2024-02-16T02:10:15;22.10;57.10
44863;DHT22;30597;49.628;10.850;2024-02-16T02:12:42;22.10;57.10
44863;DHT22;30597;49.628;10.850;2024-02-16T02:15:08;22.10;57.30
44863;DHT22;30597;49.628;10.850;2024-02-16T02:17:34;22.10;57.20
44863;DHT22;30597;49.628;10.850;2024-02-16T02:20:00;22.10;57.30
44863;DHT22;30597;49.628;10.850;2024-02-16T02:22:26;22.10;57.40
44863;DHT22;30597;49.628;10.850;2024-02-16T02:24:52;22.10;57.50
44863;DHT22;30597;49.628;10.850;2024-02-16T02:27:21;22.10;57.40
44863;DHT22;30597;49.628;10.850;2024-02-16T02:29:46;22.10;57.50
44863;DHT22;30597;49.628;10.850;2024-02-16T02:32:12;22.10;57.40
44863;DHT22;30597;49.628;10.850;2024-02-16T02:34:38;22.10;57.50
44863;DHT22;30597;49.628;10.850;2024-02-16T02:37:04;22.10;57.40
44863;DHT22;30597;49.628;10.850;2024-02-16T02:39:30;22.10;57.40
44863;DHT22;30597;49.628;10.850;2024-02-16T02:41:56;22.10;57.60
44863;DHT22;30597;49.628;10.850;2024-02-16T02:44:23;22.10;57.50
44863;DHT22;30597;49.628;10.850;2024-02-16T02:46:49;22.10;57.50
44863;DHT22;30597;49.628;10.850;2024-02-16T02:49:14;22.10;57.50
44863;DHT22;30597;49.628;10.850;2024-02-16T02:51:40;22.00;57.40
44863;DHT22;30597;49.628;10.850;2024-02-16T02:54:05;22.00;57.50
44863;DHT22;30597;49.628;10.850;2024-02-16T02:56:31;22.00;57.40
44863;DHT22;30597;49.628;10.850;2024-02-16T02:58:57;22.00;57.50
44863;DHT22;30597;49.628;10.850;2024-02-16T03:01:23;22.00;57.50
44863;DHT22;30597;49.628;10.850;2024-02-16T03:03:48;22.00;57.60
44863;DHT22;30597;49.628;10.850;2024-02-16T03:06:20;22.00;57.60
44863;DHT22;30597;49.628;10.850;2024-02-16T03:08:46;22.00;57.60
44863;DHT22;30597;49.628;10.850;2024-02-16T03:11:12;22.00;57.70
44863;DHT22;30597;49.628;10.850;2024-02-16T03:13:38;22.00;57.70
44863;DHT22;30597;49.628;10.850;2024-02-16T03:16:04;22.00;57.70
44863;DHT22;30597;49.628;10.850;2024-02-16T03:18:33;22.00;57.70
44863;DHT22;30597;49.628;10.850;2024-02-16T03:21:02;22.00;57.80
44863;DHT22;30597;49.628;10.850;2024-02-16T03:23:28;22.00;57.80
44863;DHT22;30597;49.628;10.850;2024-02-16T03:25:53;22.00;57.70
44863;DHT22;30597;49.628;10.850;2024-02-16T03:28:20;22.00;57.80
44863;DHT22;30597;49.628;10.850;2024-02-16T03:30:46;22.00;57.80
44863;DHT22;30597;49.628;10.850;2024-02-16T03:33:12;21.90;57.60
44863;DHT22;30597;49.628;10.850;2024-02-16T03:35:37;22.00;57.70
44863;DHT22;30597;49.628;10.850;2024-02-16T03:38:06;22.00;57.80
44863;DHT22;30597;49.628;10.850;2024-02-16T03:40:32;21.90;57.70
44863;DHT22;30597;49.628;10.850;2024-02-16T03:42:58;21.90;57.70
44863;DHT22;30597;49.628;10.850;2024-02-16T03:45:24;21.90;57.70
44863;DHT22;30597;49.628;10.850;2024-02-16T03:47:50;21.90;57.70
44863;DHT22;30597;49.628;10.850;2024-02-16T03:50:21;21.90;57.70
44863;DHT22;30597;49.628;10.850;2024-02-16T03:52:47;21.90;57.80
44863;DHT22;30597;49.628;10.850;2024-02-16T03:55:13;21.80;57.60
44863;DHT22;30597;49.628;10.850;2024-02-16T03:57:40;21.80;57.70
44863;DHT22;30597;49.628;10.850;2024-02-16T04:00:06;21.90;57.80
44863;DHT22;30597;49.628;10.850;2024-02-16T04:02:32;21.90;57.70
44863;DHT22;30597;49.628;10.850;2024-02-16T04:04:58;21.80;57.60
44863;DHT22;30597;49.628;10.850;2024-02-16T04:07:23;21.90;57.70
44863;DHT22;30597;49.628;10.850;2024-02-16T04:09:49;21.80;57.70
44863;DHT22;30597;49.628;10.850;2024-02-16T04:12:15;21.80;57.70
44863;DHT22;30597;49.628;10.850;2024-02-16T04:14:40;21.80;57.70
44863;DHT22;30597;49.628;10.850;2024-02-16T04:17:07;21.80;57.70
44863;DHT22;30597;49.628;10.850;2024-02-16T04:19:32;21.80;57.70
44863;DHT22;30597;49.628;10.850;2024-02-16T04:21:58;21.80;57.80
44863;DHT22;30597;49.628;10.850;2024-02-16T04:24:23;21.80;57.80
44863;DHT22;30597;49.628;10.850;2024-02-16T04:26:49;21.80;57.80
44863;DHT22;30597;49.628;10.850;2024-02-16T04:29:14;21.80;57.90
44863;DHT22;30597;49.628;10.850;2024-02-16T04:31:41;21.80;57.90
44863;DHT22;30597;49.628;10.850;2024-02-16T04:34:08;21.80;57.90
44863;DHT22;30597;49.628;10.850;2024-02-16T04:36:34;21.80;57.90
44863;DHT22;30597;49.628;10.850;2024-02-16T04:39:00;21.80;57.80
44863;DHT22;30597;49.628;10.850;2024-02-16T04:41:25;21.80;57.80
44863;DHT22;30597;49.628;10.850;2024-02-16T04:43:51;21.80;57.80
44863;DHT22;30597;49.628;10.850;2024-02-16T04:46:17;21.80;57.80
44863;DHT22;30597;49.628;10.850;2024-02-16T04:48:42;21.80;57.90
44863;DHT22;30597;49.628;10.850;2024-02-16T04:51:08;21.70;57.80
44863;DHT22;30597;49.628;10.850;2024-02-16T04:53:33;21.70;57.90
44863;DHT22;30597;49.628;10.850;2024-02-16T04:55:59;21.70;57.90
44863;DHT22;30597;49.628;10.850;2024-02-16T04:58:25;21.70;57.90
44863;DHT22;30597;49.628;10.850;2024-02-16T05:00:50;21.70;57.80
44863;DHT22;30597;49.628;10.850;2024-02-16T05:03:17;21.70;57.90
44863;DHT22;30597;49.628;10.850;2024-02-16T05:05:43;21.70;58.00
44863;DHT22;30597;49.628;10.850;2024-02-16T05:08:09;21.70;58.00
44863;DHT22;30597;49.628;10.850;2024-02-16T05:10:34;21.70;58.00
44863;DHT22;30597;49.628;10.850;2024-02-16T05:13:00;21.70;58.00
44863;DHT22;30597;49.628;10.850;2024-02-16T05:15:26;21.70;58.00
44863;DHT22;30597;49.628;10.850;2024-02-16T05:17:51;21.70;58.00
44863;DHT22;30597;49.628;10.850;2024-02-16T05:20:18;21.70;58.00
44863;DHT22;30597;49.628;10.850;2024-02-16T05:22:45;21.70;58.20
44863;DHT22;30597;49.628;10.850;2024-02-16T05:25:17;21.70;58.20
44863;DHT22;30597;49.628;10.850;2024-02-16T05:27:44;21.70;58.10
44863;DHT22;30597;49.628;10.850;2024-02-16T05:30:11;21.70;58.20
44863;DHT22;30597;49.628;10.850;2024-02-16T05:32:40;21.70;58.20
44863;DHT22;30597;49.628;10.850;2024-02-16T05:35:06;21.70;58.10
44863;DHT22;30597;49.628;10.850;2024-02-16T05:37:46;21.70;58.20
44863;DHT22;30597;49.628;10.850;2024-02-16T05:40:19;21.70;58.30
44863;DHT22;30597;49.628;10.850;2024-02-16T05:42:54;21.70;58.30
44863;DHT22;30597;49.628;10.850;2024-02-16T05:45:20;21.70;58.30
44863;DHT22;30597;49.628;10.850;2024-02-16T05:47:46;21.60;58.20
44863;DHT22;30597;49.628;10.850;2024-02-16T05:50:13;21.60;58.30
44863;DHT22;30597;49.628;10.850;2024-02-16T05:52:39;21.70;58.40
44863;DHT22;30597;49.628;10.850;2024-02-16T05:55:09;21.60;58.30
44863;DHT22;30597;49.628;10.850;2024-02-16T05:57:35;21.60;58.40
44863;DHT22;30597;49.628;10.850;2024-02-16T06:00:02;21.60;58.40
44863;DHT22;30597;49.628;10.850;2024-02-16T06:02:30;21.60;58.50
44863;DHT22;30597;49.628;10.850;2024-02-16T06:04:55;21.70;58.40
44863;DHT22;30597;49.628;10.850;2024-02-16T06:07:21;21.60;58.20
44863;DHT22;30597;49.628;10.850;2024-02-16T06:09:47;21.70;58.20
44863;DHT22;30597;49.628;10.850;2024-02-16T06:12:13;21.70;58.20
44863;DHT22;30597;49.628;10.850;2024-02-16T06:14:38;21.70;58.10
44863;DHT22;30597;49.628;10.850;2024-02-16T06:17:06;21.70;58.10
44863;DHT22;30597;49.628;10.850;2024-02-16T06:19:33;21.70;58.10
44863;DHT22;30597;49.628;10.850;2024-02-16T06:21:59;21.70;58.70
44863;DHT22;30597;49.628;10.850;2024-02-16T06:24:24;21.70;58.00
44863;DHT22;30597;49.628;10.850;2024-02-16T06:26:50;21.80;58.10
44863;DHT22;30597;49.628;10.850;2024-02-16T06:29:19;21.80;58.00
44863;DHT22;30597;49.628;10.850;2024-02-16T06:31:46;21.80;57.90
44863;DHT22;30597;49.628;10.850;2024-02-16T06:34:13;21.70;57.80
44863;DHT22;30597;49.628;10.850;2024-02-16T06:36:39;21.80;58.00
44863;DHT22;30597;49.628;10.850;2024-02-16T06:39:04;21.80;57.90
44863;DHT22;30597;49.628;10.850;2024-02-16T06:41:30;21.80;57.80
44863;DHT22;30597;49.628;10.850;2024-02-16T06:43:55;21.80;57.80
44863;DHT22;30597;49.628;10.850;2024-02-16T06:46:21;21.80;57.60
44863;DHT22;30597;49.628;10.850;2024-02-16T06:48:47;21.70;57.30
44863;DHT22;30597;49.628;10.850;2024-02-16T06:51:13;21.70;57.30
44863;DHT22;30597;49.628;10.850;2024-02-16T06:53:39;21.70;57.40
44863;DHT22;30597;49.628;10.850;2024-02-16T06:56:05;21.80;57.30
44863;DHT22;30597;49.628;10.850;2024-02-16T06:58:30;21.80;57.20
44863;DHT22;30597;49.628;10.850;2024-02-16T07:00:56;21.80;57.80
44863;DHT22;30597;49.628;10.850;2024-02-16T07:03:23;21.80;57.20
44863;DHT22;30597;49.628;10.850;2024-02-16T07:05:49;21.80;57.20
44863;DHT22;30597;49.628;10.850;2024-02-16T07:08:14;21.80;57.30
44863;DHT22;30597;49.628;10.850;2024-02-16T07:10:40;21.90;57.50
44863;DHT22;30597;49.628;10.850;2024-02-16T07:13:06;22.00;57.50
44863;DHT22;30597;49.628;10.850;2024-02-16T07:15:31;22.00;57.60
44863;DHT22;30597;49.628;10.850;2024-02-16T07:17:57;22.20;57.70
44863;DHT22;30597;49.628;10.850;2024-02-16T07:20:23;22.20;57.50
44863;DHT22;30597;49.628;10.850;2024-02-16T07:22:48;22.20;57.50
44863;DHT22;30597;49.628;10.850;2024-02-16T07:25:17;22.30;57.50
44863;DHT22;30597;49.628;10.850;2024-02-16T07:27:42;22.40;57.30
44863;DHT22;30597;49.628;10.850;2024-02-16T07:30:08;22.40;57.20
44863;DHT22;30597;49.628;10.850;2024-02-16T07:32:36;22.50;57.20
44863;DHT22;30597;49.628;10.850;2024-02-16T07:35:02;22.50;57.30
44863;DHT22;30597;49.628;10.850;2024-02-16T07:37:28;22.60;57.20
44863;DHT22;30597;49.628;10.850;2024-02-16T07:39:54;22.60;57.10
44863;DHT22;30597;49.628;10.850;2024-02-16T07:42:19;22.70;57.10
44863;DHT22;30597;49.628;10.850;2024-02-16T07:44:46;22.70;57.00
44863;DHT22;30597;49.628;10.850;2024-02-16T07:47:11;22.70;56.80
44863;DHT22;30597;49.628;10.850;2024-02-16T07:49:38;22.80;57.50
44863;DHT22;30597;49.628;10.850;2024-02-16T07:52:05;22.80;56.90
44863;DHT22;30597;49.628;10.850;2024-02-16T07:54:30;22.80;56.60
44863;DHT22;30597;49.628;10.850;2024-02-16T07:56:56;22.90;56.60
44863;DHT22;30597;49.628;10.850;2024-02-16T07:59:25;22.90;56.60
44863;DHT22;30597;49.628;10.850;2024-02-16T08:01:50;23.00;56.50
44863;DHT22;30597;49.628;10.850;2024-02-16T08:04:16;23.00;56.40
44863;DHT22;30597;49.628;10.850;2024-02-16T08:06:41;23.00;56.40
44863;DHT22;30597;49.628;10.850;2024-02-16T08:09:07;23.10;56.40
44863;DHT22;30597;49.628;10.850;2024-02-16T08:11:33;23.10;56.30
44863;DHT22;30597;49.628;10.850;2024-02-16T08:13:58;23.10;56.10
44863;DHT22;30597;49.628;10.850;2024-02-16T08:16:26;23.10;55.70
44863;DHT22;30597;49.628;10.850;2024-02-16T08:18:53;23.10;55.40
44863;DHT22;30597;49.628;10.850;2024-02-16T08:21:18;23.10;55.30
44863;DHT22;30597;49.628;10.850;2024-02-16T08:23:44;23.10;55.50
44863;DHT22;30597;49.628;10.850;2024-02-16T08:26:09;23.10;55.70
44863;DHT22;30597;49.628;10.850;2024-02-16T08:28:35;23.20;55.90
44863;DHT22;30597;49.628;10.850;2024-02-16T08:31:00;23.20;56.00
44863;DHT22;30597;49.628;10.850;2024-02-16T08:33:26;23.20;55.90
44863;DHT22;30597;49.628;10.850;2024-02-16T08:35:51;23.20;56.00
44863;DHT22;30597;49.628;10.850;2024-02-16T08:38:17;23.20;55.90
44863;DHT22;30597;49.628;10.850;2024-02-16T08:40:42;23.30;56.00
44863;DHT22;30597;49.628;10.850;2024-02-16T08:43:08;23.30;55.90
44863;DHT22;30597;49.628;10.850;2024-02-16T08:45:34;23.40;56.10
44863;DHT22;30597;49.628;10.850;2024-02-16T08:48:00;23.30;56.00
44863;DHT22;30597;49.628;10.850;2024-02-16T08:50:27;23.50;56.20
44863;DHT22;30597;49.628;10.850;2024-02-16T08:52:53;23.40;56.00
44863;DHT22;30597;49.628;10.850;2024-02-16T08:55:19;23.40;56.10
44863;DHT22;30597;49.628;10.850;2024-02-16T08:57:45;23.40;55.90
44863;DHT22;30597;49.628;10.850;2024-02-16T09:00:11;23.50;56.00
44863;DHT22;30597;49.628;10.850;2024-02-16T09:02:37;23.50;56.70
44863;DHT22;30597;49.628;10.850;2024-02-16T09:05:04;23.50;55.80
44863;DHT22;30597;49.628;10.850;2024-02-16T09:07:30;23.50;55.90
44863;DHT22;30597;49.628;10.850;2024-02-16T09:09:55;23.50;55.80
44863;DHT22;30597;49.628;10.850;2024-02-16T09:12:22;23.50;55.80
44863;DHT22;30597;49.628;10.850;2024-02-16T09:14:47;23.60;55.70
44863;DHT22;30597;49.628;10.850;2024-02-16T09:17:13;23.50;55.60
44863;DHT22;30597;49.628;10.850;2024-02-16T09:19:39;23.50;55.50
44863;DHT22;30597;49.628;10.850;2024-02-16T09:22:04;23.50;55.50
44863;DHT22;30597;49.628;10.850;2024-02-16T09:24:32;23.50;55.60
44863;DHT22;30597;49.628;10.850;2024-02-16T09:26:57;23.60;55.90
44863;DHT22;30597;49.628;10.850;2024-02-16T09:29:23;23.50;55.50
44863;DHT22;30597;49.628;10.850;2024-02-16T09:31:49;23.60;55.50
44863;DHT22;30597;49.628;10.850;2024-02-16T09:34:16;23.60;55.50
44863;DHT22;30597;49.628;10.850;2024-02-16T09:36:42;23.50;55.40
44863;DHT22;30597;49.628;10.850;2024-02-16T09:39:08;23.60;55.60
44863;DHT22;30597;49.628;10.850;2024-02-16T09:41:35;23.50;55.60
44863;DHT22;30597;49.628;10.850;2024-02-16T09:44:04;23.50;55.70
44863;DHT22;30597;49.628;10.850;2024-02-16T09:46:30;23.50;56.20
44863;DHT22;30597;49.628;10.850;2024-02-16T09:49:01;23.50;55.50
44863;DHT22;30597;49.628;10.850;2024-02-16T09:51:27;23.50;55.70
44863;DHT22;30597;49.628;10.850;2024-02-16T09:53:53;23.50;55.70
44863;DHT22;30597;49.628;10.850;2024-02-16T09:56:19;23.50;55.60
44863;DHT22;30597;49.628;10.850;2024-02-16T09:58:45;23.50;55.60
44863;DHT22;30597;49.628;10.850;2024-02-16T10:01:21;23.60;55.40
44863;DHT22;30597;49.628;10.850;2024-02-16T10:03:46;23.50;55.40
44863;DHT22;30597;49.628;10.850;2024-02-16T10:06:13;23.60;55.40
44863;DHT22;30597;49.628;10.850;2024-02-16T10:08:56;23.70;55.40
44863;DHT22;30597;49.628;10.850;2024-02-16T10:11:27;23.70;55.50
44863;DHT22;30597;49.628;10.850;2024-02-16T10:14:11;23.70;55.50
44863;DHT22;30597;49.628;10.850;2024-02-16T10:16:37;23.80;55.40
44863;DHT22;30597;49.628;10.850;2024-02-16T10:19:07;23.80;55.40
44863;DHT22;30597;49.628;10.850;2024-02-16T10:21:33;23.80;55.40
44863;DHT22;30597;49.628;10.850;2024-02-16T10:24:06;23.80;55.30
44863;DHT22;30597;49.628;10.850;2024-02-16T10:26:34;23.90;55.40
44863;DHT22;30597;49.628;10.850;2024-02-16T10:29:03;23.90;55.30
44863;DHT22;30597;49.628;10.850;2024-02-16T10:31:31;23.90;55.20
44863;DHT22;30597;49.628;10.850;2024-02-16T10:33:58;23.90;55.10
44863;DHT22;30597;49.628;10.850;2024-02-16T10:36:25;23.90;55.10
44863;DHT22;30597;49.628;10.850;2024-02-16T10:38:54;24.00;55.10
44863;DHT22;30597;49.628;10.850;2024-02-16T10:41:20;23.90;54.90
44863;DHT22;30597;49.628;10.850;2024-02-16T10:43:48;24.00;54.90
44863;DHT22;30597;49.628;10.850;2024-02-16T10:46:16;24.00;54.90
44863;DHT22;30597;49.628;10.850;2024-02-16T10:48:42;24.00;54.80
44863;DHT22;30597;49.628;10.850;2024-02-16T10:51:09;23.90;54.80
44863;DHT22;30597;49.628;10.850;2024-02-16T10:53:35;23.90;54.90
44863;DHT22;30597;49.628;10.850;2024-02-16T10:56:01;23.90;54.90
44863;DHT22;30597;49.628;10.850;2024-02-16T10:58:27;23.90;54.90
44863;DHT22;30597;49.628;10.850;2024-02-16T11:00:55;23.90;55.00
44863;DHT22;30597;49.628;10.850;2024-02-16T11:03:25;23.90;55.10
44863;DHT22;30597;49.628;10.850;2024-02-16T11:05:52;23.90;55.10
44863;DHT22;30597;49.628;10.850;2024-02-16T11:08:20;23.80;55.00
44863;DHT22;30597;49.628;10.850;2024-02-16T11:11:00;23.80;55.00
44863;DHT22;30597;49.628;10.850;2024-02-16T11:13:27;23.90;54.90
44863;DHT22;30597;49.628;10.850;2024-02-16T11:16:00;23.80;54.40
44863;DHT22;30597;49.628;10.850;2024-02-16T11:18:28;23.80;54.30
44863;DHT22;30597;49.628;10.850;2024-02-16T11:20:54;23.70;54.20
44863;DHT22;30597;49.628;10.850;2024-02-16T11:23:27;23.70;54.10
44863;DHT22;30597;49.628;10.850;2024-02-16T11:25:53;23.80;54.30
44863;DHT22;30597;49.628;10.850;2024-02-16T11:28:19;23.80;54.20
44863;DHT22;30597;49.628;10.850;2024-02-16T11:30:45;23.80;54.10
44863;DHT22;30597;49.628;10.850;2024-02-16T11:33:11;23.80;54.00
44863;DHT22;30597;49.628;10.850;2024-02-16T11:35:36;23.80;53.90
44863;DHT22;30597;49.628;10.850;2024-02-16T11:38:02;23.90;54.00
44863;DHT22;30597;49.628;10.850;2024-02-16T11:40:28;23.90;54.20
44863;DHT22;30597;49.628;10.850;2024-02-16T11:42:59;24.00;54.20
44863;DHT22;30597;49.628;10.850;2024-02-16T11:45:25;24.00;54.00
44863;DHT22;30597;49.628;10.850;2024-02-16T11:48:02;24.00;53.10
44863;DHT22;30597;49.628;10.850;2024-02-16T11:50:27;24.00;52.60
44863;DHT22;30597;49.628;10.850;2024-02-16T11:52:53;24.00;52.50
44863;DHT22;30597;49.628;10.850;2024-02-16T11:55:18;23.90;52.50
44863;DHT22;30597;49.628;10.850;2024-02-16T11:57:44;24.00;52.60
44863;DHT22;30597;49.628;10.850;2024-02-16T12:00:14;24.10;52.70
44863;DHT22;30597;49.628;10.850;2024-02-16T12:02:40;24.00;52.60
44863;DHT22;30597;49.628;10.850;2024-02-16T12:05:06;23.90;52.60
44863;DHT22;30597;49.628;10.850;2024-02-16T12:07:32;23.90;52.80
44863;DHT22;30597;49.628;10.850;2024-02-16T12:10:01;24.00;53.50
44863;DHT22;30597;49.628;10.850;2024-02-16T12:12:27;24.00;52.80
44863;DHT22;30597;49.628;10.850;2024-02-16T12:14:54;23.90;52.60
44863;DHT22;30597;49.628;10.850;2024-02-16T12:17:20;23.90;52.80
44863;DHT22;30597;49.628;10.850;2024-02-16T12:19:46;23.90;52.70
44863;DHT22;30597;49.628;10.850;2024-02-16T12:22:17;23.90;52.80
44863;DHT22;30597;49.628;10.850;2024-02-16T12:24:44;23.90;52.80
44863;DHT22;30597;49.628;10.850;2024-02-16T12:27:10;23.90;52.80
44863;DHT22;30597;49.628;10.850;2024-02-16T12:29:35;23.80;52.60
44863;DHT22;30597;49.628;10.850;2024-02-16T12:32:01;23.80;52.80
44863;DHT22;30597;49.628;10.850;2024-02-16T12:34:26;23.70;52.80
44863;DHT22;30597;49.628;10.850;2024-02-16T12:36:53;23.80;53.00
44863;DHT22;30597;49.628;10.850;2024-02-16T12:39:18;23.80;53.00
44863;DHT22;30597;49.628;10.850;2024-02-16T12:41:44;23.80;53.00
44863;DHT22;30597;49.628;10.850;2024-02-16T12:44:10;23.80;52.90
44863;DHT22;30597;49.628;10.850;2024-02-16T12:46:35;23.80;52.80
44863;DHT22;30597;49.628;10.850;2024-02-16T12:49:01;23.80;52.70
44863;DHT22;30597;49.628;10.850;2024-02-16T12:51:27;23.70;52.70
44863;DHT22;30597;49.628;10.850;2024-02-16T12:53:52;23.80;52.70
44863;DHT22;30597;49.628;10.850;2024-02-16T12:56:18;23.80;52.70
44863;DHT22;30597;49.628;10.850;2024-02-16T12:58:44;23.80;52.70
44863;DHT22;30597;49.628;10.850;2024-02-16T13:01:10;23.80;53.30
44863;DHT22;30597;49.628;10.850;2024-02-16T13:03:37;23.80;52.70
44863;DHT22;30597;49.628;10.850;2024-02-16T13:06:03;23.80;52.80
44863;DHT22;30597;49.628;10.850;2024-02-16T13:08:29;23.80;52.60
44863;DHT22;30597;49.628;10.850;2024-02-16T13:10:56;23.80;52.60
44863;DHT22;30597;49.628;10.850;2024-02-16T13:13:22;23.80;52.60
44863;DHT22;30597;49.628;10.850;2024-02-16T13:15:48;23.90;52.60
44863;DHT22;30597;49.628;10.850;2024-02-16T13:18:14;23.90;52.60
44863;DHT22;30597;49.628;10.850;2024-02-16T13:20:40;23.90;52.60
44863;DHT22;30597;49.628;10.850;2024-02-16T13:23:05;23.80;52.50
44863;DHT22;30597;49.628;10.850;2024-02-16T13:25:31;23.90;52.50
44863;DHT22;30597;49.628;10.850;2024-02-16T13:27:57;23.80;52.50
44863;DHT22;30597;49.628;10.850;2024-02-16T13:30:22;23.90;52.50
44863;DHT22;30597;49.628;10.850;2024-02-16T13:32:48;23.90;52.50
44863;DHT22;30597;49.628;10.850;2024-02-16T13:35:14;23.90;52.40
44863;DHT22;30597;49.628;10.850;2024-02-16T13:37:40;23.90;52.50
44863;DHT22;30597;49.628;10.850;2024-02-16T13:40:09;23.90;52.60
44863;DHT22;30597;49.628;10.850;2024-02-16T13:42:39;23.90;52.50
44863;DHT22;30597;49.628;10.850;2024-02-16T13:45:05;23.90;52.60
44863;DHT22;30597;49.628;10.850;2024-02-16T13:47:31;23.90;52.60
44863;DHT22;30597;49.628;10.850;2024-02-16T13:49:57;23.80;52.40
44863;DHT22;30597;49.628;10.850;2024-02-16T13:52:24;23.90;52.50
44863;DHT22;30597;49.628;10.850;2024-02-16T13:54:50;23.80;52.50
44863;DHT22;30597;49.628;10.850;2024-02-16T13:57:15;23.80;52.40
44863;DHT22;30597;49.628;10.850;2024-02-16T13:59:42;23.70;52.40
44863;DHT22;30597;49.628;10.850;2024-02-16T14:02:08;23.70;52.60
44863;DHT22;30597;49.628;10.850;2024-02-16T14:04:34;23.80;52.70
44863;DHT22;30597;49.628;10.850;2024-02-16T14:06:59;23.70;52.70
44863;DHT22;30597;49.628;10.850;2024-02-16T14:09:25;23.80;52.70
44863;DHT22;30597;49.628;10.850;2024-02-16T14:11:52;23.70;52.60
44863;DHT22;30597;49.628;10.850;2024-02-16T14:14:19;23.80;52.50
44863;DHT22;30597;49.628;10.850;2024-02-16T14:16:44;23.80;52.60
44863;DHT22;30597;49.628;10.850;2024-02-16T14:19:10;23.90;53.10
44863;DHT22;30597;49.628;10.850;2024-02-16T14:21:36;23.70;52.40
44863;DHT22;30597;49.628;10.850;2024-02-16T14:24:01;23.90;52.60
44863;DHT22;30597;49.628;10.850;2024-02-16T14:26:27;23.80;52.40
44863;DHT22;30597;49.628;10.850;2024-02-16T14:28:53;23.80;52.50
44863;DHT22;30597;49.628;10.850;2024-02-16T14:31:20;23.80;52.50
44863;DHT22;30597;49.628;10.850;2024-02-16T14:33:47;23.80;52.40
44863;DHT22;30597;49.628;10.850;2024-02-16T14:36:12;23.90;52.50
44863;DHT22;30597;49.628;10.850;2024-02-16T14:38:38;23.90;52.40
44863;DHT22;30597;49.628;10.850;2024-02-16T14:41:03;23.90;52.40
44863;DHT22;30597;49.628;10.850;2024-02-16T14:43:31;23.90;52.40
44863;DHT22;30597;49.628;10.850;2024-02-16T14:45:58;24.00;52.50
44863;DHT22;30597;49.628;10.850;2024-02-16T14:48:23;23.90;52.40
44863;DHT22;30597;49.628;10.850;2024-02-16T14:50:53;23.90;52.40
44863;DHT22;30597;49.628;10.850;2024-02-16T14:53:19;23.90;52.40
44863;DHT22;30597;49.628;10.850;2024-02-16T14:55:46;23.90;52.30
44863;DHT22;30597;49.628;10.850;2024-02-16T14:58:12;23.90;52.40
44863;DHT22;30597;49.628;10.850;2024-02-16T15:00:37;23.90;52.30
44863;DHT22;30597;49.628;10.850;2024-02-16T15:03:03;23.90;53.00
44863;DHT22;30597;49.628;10.850;2024-02-16T15:05:30;23.90;52.40
44863;DHT22;30597;49.628;10.850;2024-02-16T15:07:55;23.90;52.30
44863;DHT22;30597;49.628;10.850;2024-02-16T15:10:21;23.90;52.40